Time;durP1;ratioP1;P1;durP2;ratioP2;P2;SDS_P1;SDS_P2;PMS_P1;PMS_P2;Temp;Humidity;BMP_temperature;BMP_pressure;BME280_temperature;BME280_humidity;BME280_pressure;Samples;Min_cycle;Max_cycle;Signal;HPM_P1;HPM_P2
2021/12/05 00:23:46;;;;;;;2.63;0.90;;;3.60;99.90;;;;;;4906337;29;20242;-61
2021/12/05 00:26:18;;;;;;;2.10;1.20;;;2.80;99.90;;;;;;4971412;28;20268;-61
2021/12/05 00:29:10;;;;;;;4.10;0.87;;;3.50;99.90;;;;;;5041258;28;20211;-61
2021/12/05 00:31:56;;;;;;;2.57;0.70;;;3.50;99.90;;;;;;5042197;28;20187;-61
2021/12/05 00:46:13;;;;;;;1.80;0.70;;;3.40;99.90;;;;;;5044300;28;20195;-61
2021/12/05 01:00:25;;;;;;;0.60;0.60;;;3.50;99.90;;;;;;5005083;28;20242;-61
2021/12/05 01:11:42;;;;;;;0.70;0.70;;;3.50;99.90;;;;;;4947589;29;20298;-61
2021/12/05 01:14:21;;;;;;;0.67;0.60;;;3.50;99.90;;;;;;4946533;29;20201;-61
2021/12/05 01:16:49;;;;;;;0.80;0.80;;;3.60;99.90;;;;;;4947107;29;20237;-61
2021/12/05 01:19:19;;;;;;;1.13;1.03;;;3.60;99.90;;;;;;4946879;29;20269;-61
2021/12/05 01:21:49;;;;;;;0.60;0.60;;;3.60;99.90;;;;;;4946664;29;20273;-61
2021/12/05 01:24:26;;;;;;;2.27;0.83;;;3.60;99.90;;;;;;4946743;29;20257;-61
2021/12/05 01:26:59;;;;;;;0.93;0.63;;;3.60;99.90;;;;;;4946782;29;20335;-62
2021/12/05 01:29:35;;;;;;;1.43;0.97;;;3.60;99.90;;;;;;4946007;29;20230;-61
2021/12/05 01:32:13;;;;;;;1.47;0.87;;;3.60;99.90;;;;;;5004367;28;20203;-61
2021/12/05 01:34:52;;;;;;;1.07;0.97;;;3.60;99.90;;;;;;5024393;28;20230;-61
2021/12/05 01:37:29;;;;;;;1.70;0.80;;;3.60;99.90;;;;;;5024124;28;20310;-61
2021/12/05 01:43:23;;;;;;;1.70;1.00;;;3.60;99.90;;;;;;5054814;28;20202;-61
2021/12/05 01:51:59;;;;;;;4.70;1.00;;;3.60;99.90;;;;;;4984601;28;20707;-61
2021/12/05 02:07:40;;;;;;;1.60;0.97;;;3.60;99.90;;;;;;5102466;28;20565;-60
2021/12/05 02:08:59;;;;;;;0.63;0.57;;;3.60;99.90;;;;;;5102323;28;20200;-61
2021/12/05 02:31:11;;;;;;;3.13;1.03;;;3.50;99.90;;;;;;5059351;28;20205;-60
2021/12/05 02:33:58;;;;;;;3.30;1.03;;;3.60;99.90;;;;;;5059110;28;20320;-60
2021/12/05 02:39:27;;;;;;;0.93;0.90;;;3.50;99.90;;;;;;5059027;28;20277;-60
2021/12/05 02:41:56;;;;;;;0.70;0.70;;;3.50;99.90;;;;;;5059170;28;20252;-61
2021/12/05 02:44:25;;;;;;;0.87;0.70;;;3.50;99.90;;;;;;5058238;28;20206;-61
2021/12/05 02:46:59;;;;;;;4.10;1.27;;;3.50;99.90;;;;;;5058785;28;20202;-60
2021/12/05 02:49:27;;;;;;;3.63;0.90;;;3.40;99.90;;;;;;5058622;28;20204;-60
2021/12/05 02:51:57;;;;;;;1.37;1.03;;;3.40;99.90;;;;;;5058795;28;20206;-61
2021/12/05 02:54:27;;;;;;;0.97;0.97;;;3.40;99.90;;;;;;5058661;28;20196;-60
2021/12/05 02:56:55;;;;;;;1.30;0.70;;;3.40;99.90;;;;;;5080748;28;20299;-61
2021/12/05 02:59:28;;;;;;;0.80;0.80;;;3.40;99.90;;;;;;5100121;28;20239;-61
2021/12/05 03:02:02;;;;;;;0.73;0.73;;;3.40;99.90;;;;;;5101268;28;20189;-60
2021/12/05 03:04:32;;;;;;;2.67;1.03;;;3.30;99.90;;;;;;5101294;28;20279;-61
2021/12/05 03:07:03;;;;;;;0.80;0.80;;;3.30;99.90;;;;;;5100755;28;20239;-61
2021/12/05 03:09:31;;;;;;;0.90;0.90;;;3.20;99.90;;;;;;5098204;28;20217;-60
2021/12/05 03:11:59;;;;;;;3.43;0.90;;;3.10;99.90;;;;;;5087659;28;20284;-60
2021/12/05 03:14:26;;;;;;;3.20;1.00;;;3.10;99.90;;;;;;5087097;28;20292;-60
2021/12/05 03:16:53;;;;;;;1.47;1.00;;;3.10;99.90;;;;;;5087652;28;20208;-60
2021/12/05 03:19:20;;;;;;;4.27;0.70;;;3.10;99.90;;;;;;5087186;28;20305;-60
2021/12/05 03:21:50;;;;;;;1.10;0.80;;;3.00;99.90;;;;;;5086699;28;20667;-60
2021/12/05 03:24:18;;;;;;;1.07;0.70;;;3.00;99.90;;;;;;5087075;28;20740;-60
2021/12/05 03:26:51;;;;;;;2.67;1.00;;;3.00;99.90;;;;;;5087151;28;20570;-61
2021/12/05 03:29:21;;;;;;;0.70;0.63;;;2.90;99.90;;;;;;5086549;28;20265;-60
2021/12/05 03:31:49;;;;;;;2.13;0.70;;;2.90;99.90;;;;;;5087506;28;20208;-60
2021/12/05 03:34:18;;;;;;;3.33;1.10;;;2.90;99.90;;;;;;5087046;28;20667;-61
2021/12/05 03:36:48;;;;;;;1.57;0.60;;;2.90;99.90;;;;;;5086742;28;20209;-60
2021/12/05 03:39:16;;;;;;;2.10;0.70;;;2.80;99.90;;;;;;5087032;28;20328;-60
2021/12/05 03:41:44;;;;;;;3.00;1.10;;;2.70;99.90;;;;;;5086984;28;20277;-60
2021/12/05 03:44:15;;;;;;;3.07;0.73;;;2.70;99.90;;;;;;5086147;28;20499;-61
2021/12/05 03:46:42;;;;;;;0.70;0.70;;;2.70;99.90;;;;;;5086888;28;20200;-60
2021/12/05 03:49:12;;;;;;;3.83;1.00;;;2.60;99.90;;;;;;5086708;28;20293;-60
2021/12/05 03:51:42;;;;;;;0.70;0.67;;;2.60;99.90;;;;;;5086460;28;20272;-60
2021/12/05 03:54:09;;;;;;;2.23;0.90;;;2.50;99.90;;;;;;5086562;28;20292;-60
2021/12/05 03:56:37;;;;;;;1.00;0.70;;;2.30;99.90;;;;;;5086555;28;20675;-60
2021/12/05 03:59:04;;;;;;;1.27;0.60;;;2.20;99.90;;;;;;5085666;28;20304;-60
2021/12/05 04:01:33;;;;;;;1.93;0.63;;;2.10;99.90;;;;;;5086790;28;20708;-61
2021/12/05 04:04:00;;;;;;;6.23;0.93;;;1.90;99.90;;;;;;5086649;28;20303;-60
2021/12/05 04:06:28;;;;;;;3.03;0.93;;;1.90;99.90;;;;;;5085961;28;20216;-60
2021/12/05 04:08:57;;;;;;;2.20;0.80;;;1.80;99.90;;;;;;5086358;28;20273;-60
2021/12/05 04:11:29;;;;;;;2.13;0.90;;;1.80;99.90;;;;;;5086577;28;20292;-60
2021/12/05 04:13:56;;;;;;;0.90;0.60;;;1.70;99.90;;;;;;5085673;28;20201;-60
2021/12/05 04:16:24;;;;;;;0.60;0.60;;;1.70;99.90;;;;;;5086266;28;20225;-60
2021/12/05 04:18:52;;;;;;;3.03;0.70;;;1.70;99.90;;;;;;5086098;28;20221;-60
2021/12/05 04:21:19;;;;;;;0.83;0.67;;;1.70;99.90;;;;;;5085321;28;20634;-60
2021/12/05 04:23:47;;;;;;;0.60;0.60;;;1.70;99.90;;;;;;5085758;28;20196;-60
2021/12/05 04:26:15;;;;;;;2.00;0.70;;;1.60;99.90;;;;;;5086089;28;20296;-60
2021/12/05 04:28:42;;;;;;;0.63;0.63;;;1.60;99.90;;;;;;5085486;28;20205;-60
2021/12/05 04:31:09;;;;;;;1.07;0.70;;;1.60;99.90;;;;;;5086281;28;20240;-60
2021/12/05 04:33:36;;;;;;;0.80;0.80;;;1.60;99.90;;;;;;5086015;28;20265;-60
2021/12/05 04:36:06;;;;;;;0.60;0.60;;;1.60;99.90;;;;;;5085496;28;20209;-60
2021/12/05 04:38:33;;;;;;;4.13;0.73;;;1.50;99.90;;;;;;5085839;28;20367;-60
2021/12/05 04:41:04;;;;;;;2.53;0.67;;;1.50;99.90;;;;;;5086034;28;20222;-60
2021/12/05 04:43:36;;;;;;;0.60;0.60;;;1.50;99.90;;;;;;5085119;28;20564;-60
2021/12/05 04:46:03;;;;;;;0.60;0.60;;;1.60;99.90;;;;;;5085864;28;20663;-60
2021/12/05 04:48:30;;;;;;;0.80;0.67;;;1.60;99.90;;;;;;5085664;28;20230;-60
2021/12/05 04:50:57;;;;;;;0.87;0.60;;;1.80;99.90;;;;;;5085520;28;20273;-60
2021/12/05 04:53:27;;;;;;;1.77;0.80;;;1.80;99.90;;;;;;5085247;28;20224;-60
2021/12/05 04:55:54;;;;;;;0.70;0.70;;;1.80;99.90;;;;;;5085538;28;20545;-60
2021/12/05 04:58:21;;;;;;;0.67;0.67;;;1.80;99.90;;;;;;5085304;28;20701;-61
2021/12/05 05:00:48;;;;;;;0.87;0.60;;;1.70;99.90;;;;;;5085081;28;20224;-60
2021/12/05 05:03:16;;;;;;;1.47;0.63;;;1.70;99.90;;;;;;5084736;28;20343;-60
2021/12/05 05:05:49;;;;;;;1.90;0.63;;;1.70;99.90;;;;;;5084463;28;20233;-60
2021/12/05 05:08:17;;;;;;;4.07;0.80;;;1.80;99.90;;;;;;5085296;28;20205;-60
2021/12/05 05:10:45;;;;;;;0.87;0.77;;;1.90;99.90;;;;;;5085639;28;20203;-60
2021/12/05 05:13:12;;;;;;;0.73;0.57;;;1.90;99.90;;;;;;5085204;28;20201;-60
2021/12/05 05:15:39;;;;;;;0.93;0.60;;;2.00;99.90;;;;;;5084678;28;20265;-60
2021/12/05 05:18:08;;;;;;;1.70;0.73;;;2.10;99.90;;;;;;5085167;28;20216;-60
2021/12/05 05:20:39;;;;;;;1.30;0.70;;;2.20;99.90;;;;;;5084637;28;20244;-60
2021/12/05 05:29:23;;;;;;;0.60;0.60;;;2.30;99.90;;;;;;5041996;28;20203;-60
2021/12/05 05:40:16;;;;;;;1.97;1.07;;;2.40;99.90;;;;;;5042245;28;20234;-60
2021/12/05 05:45:47;;;;;;;1.07;0.97;;;2.40;99.90;;;;;;5042061;28;20202;-60
2021/12/05 05:51:12;;;;;;;1.20;0.73;;;2.50;99.90;;;;;;5101939;28;20576;-60
2021/12/05 05:53:39;;;;;;;1.73;0.70;;;2.50;99.90;;;;;;5101949;28;20208;-61
2021/12/05 05:56:12;;;;;;;0.63;0.60;;;2.60;99.90;;;;;;5101303;28;20283;-60
2021/12/05 05:58:43;;;;;;;1.03;0.70;;;2.60;99.90;;;;;;5100230;28;20200;-61
2021/12/05 06:01:19;;;;;;;0.60;0.60;;;2.60;99.90;;;;;;5100290;28;20189;-60
2021/12/05 06:03:45;;;;;;;2.17;0.67;;;2.60;99.90;;;;;;5100179;28;20211;-60
2021/12/05 06:06:16;;;;;;;0.90;0.63;;;2.60;99.90;;;;;;5099251;28;20195;-60
2021/12/05 06:08:44;;;;;;;0.63;0.60;;;2.60;99.90;;;;;;5099773;28;20196;-60
2021/12/05 06:11:13;;;;;;;0.70;0.70;;;2.60;99.90;;;;;;5100067;28;20220;-60
2021/12/05 06:13:40;;;;;;;1.30;0.77;;;2.50;99.90;;;;;;5099077;28;20290;-61
2021/12/05 06:16:08;;;;;;;1.03;0.80;;;2.60;99.90;;;;;;5099856;28;20216;-60
2021/12/05 06:18:35;;;;;;;0.67;0.63;;;2.60;99.90;;;;;;5098686;28;20228;-60
2021/12/05 06:21:04;;;;;;;3.23;0.80;;;2.70;99.90;;;;;;5098896;28;20197;-60
2021/12/05 06:23:33;;;;;;;1.50;0.80;;;2.70;99.90;;;;;;5099727;28;20256;-60
2021/12/05 06:26:01;;;;;;;0.60;0.60;;;2.70;99.90;;;;;;5099828;28;20197;-59
2021/12/05 06:28:33;;;;;;;0.70;0.70;;;2.70;99.90;;;;;;5099195;28;20746;-60
2021/12/05 06:31:08;;;;;;;0.70;0.70;;;2.70;99.90;;;;;;5099905;28;20654;-60
2021/12/05 06:42:04;;;;;;;1.00;0.80;;;2.70;99.90;;;;;;5099495;28;20268;-60
2021/12/05 06:47:21;;;;;;;0.83;0.83;;;2.60;99.90;;;;;;5098798;28;20623;-60
2021/12/05 06:49:48;;;;;;;1.03;0.90;;;2.60;99.90;;;;;;5097121;28;20268;-60
2021/12/05 06:52:15;;;;;;;1.83;0.87;;;2.60;99.90;;;;;;5098657;28;20224;-60
2021/12/05 06:54:44;;;;;;;1.70;1.10;;;2.60;99.90;;;;;;5098372;28;20258;-61
2021/12/05 06:57:11;;;;;;;1.10;1.00;;;2.50;99.90;;;;;;5098806;28;20228;-60
2021/12/05 06:59:40;;;;;;;0.67;0.60;;;2.50;99.90;;;;;;5098225;28;20193;-60
2021/12/05 07:02:10;;;;;;;4.93;0.90;;;2.50;99.90;;;;;;5087676;28;20197;-60
2021/12/05 07:04:55;;;;;;;1.07;0.80;;;2.40;99.90;;;;;;5084699;28;20219;-60
2021/12/05 07:07:24;;;;;;;1.10;1.00;;;2.40;99.90;;;;;;5083295;28;20212;-61
2021/12/05 07:09:53;;;;;;;1.07;0.90;;;2.30;99.90;;;;;;5083693;28;20597;-60
2021/12/05 07:15:08;;;;;;;1.10;0.97;;;2.30;99.90;;;;;;5085048;28;20189;-60
2021/12/05 07:20:15;;;;;;;0.80;0.80;;;2.20;99.90;;;;;;5086077;28;20200;-60
2021/12/05 07:22:52;;;;;;;37.97;14.20;;;2.30;99.90;;;;;;5084603;28;20208;-60
2021/12/05 07:25:29;;;;;;;39.23;16.50;;;2.20;99.90;;;;;;5084076;28;20283;-60
2021/12/05 07:41:49;;;;;;;1.20;1.10;;;2.50;99.90;;;;;;5085779;28;20572;-57
2021/12/05 07:44:16;;;;;;;1.47;1.17;;;2.60;99.90;;;;;;5084462;28;20958;-58
2021/12/05 07:46:43;;;;;;;1.53;1.40;;;2.60;99.90;;;;;;5082787;28;20196;-58
2021/12/05 07:49:11;;;;;;;1.53;1.20;;;2.70;99.90;;;;;;5084965;28;20346;-58
2021/12/05 07:51:41;;;;;;;1.57;1.37;;;2.70;99.90;;;;;;5085195;28;20231;-58
2021/12/05 07:54:12;;;;;;;10.20;1.90;;;2.80;99.90;;;;;;5084425;28;20201;-58
2021/12/05 07:56:46;;;;;;;3.43;1.60;;;2.80;99.90;;;;;;5084629;28;20199;-58
2021/12/05 07:59:38;;;;;;;1.47;1.30;;;2.80;99.90;;;;;;5081203;28;20197;-58
2021/12/05 08:16:01;;;;;;;3.13;1.20;;;3.10;99.90;;;;;;5086323;28;20290;-58
2021/12/05 08:18:30;;;;;;;1.13;1.00;;;3.10;99.90;;;;;;5085426;28;20205;-58
2021/12/05 08:20:58;;;;;;;1.63;1.23;;;3.10;99.90;;;;;;5085854;28;20273;-58
2021/12/05 08:23:25;;;;;;;3.70;1.03;;;3.20;99.90;;;;;;5085770;28;20233;-58
2021/12/05 08:26:00;;;;;;;1.30;1.20;;;3.20;99.90;;;;;;5086023;28;20268;-58
2021/12/05 08:28:45;;;;;;;3.23;1.60;;;3.20;99.90;;;;;;5084812;28;20264;-58
2021/12/05 08:31:20;;;;;;;1.70;1.60;;;3.10;99.90;;;;;;5085839;28;20209;-58
2021/12/05 08:34:01;;;;;;;1.93;1.33;;;3.10;99.90;;;;;;5085501;28;20536;-58
2021/12/05 08:36:55;;;;;;;1.30;1.20;;;3.10;99.90;;;;;;5085410;28;20216;-58
2021/12/05 08:42:38;;;;;;;1.60;1.50;;;3.10;99.90;;;;;;5023790;28;20274;-58
2021/12/05 09:21:36;;;;;;;1.83;1.33;;;3.40;99.90;;;;;;5042506;28;20209;-58
2021/12/05 09:27:11;;;;;;;1.87;1.53;;;3.30;99.90;;;;;;5025274;28;20202;-57
2021/12/05 09:30:00;;;;;;;1.43;1.33;;;3.30;99.90;;;;;;5039841;28;20202;-57
2021/12/05 10:03:07;;;;;;;1.13;1.00;;;3.40;99.90;;;;;;5022174;28;20302;-58
2021/12/05 10:11:18;;;;;;;1.50;1.27;;;3.60;99.90;;;;;;5022307;28;20222;-58
2021/12/05 10:13:59;;;;;;;1.20;1.10;;;3.60;99.90;;;;;;5021018;28;20217;-58
2021/12/05 10:16:51;;;;;;;1.70;1.00;;;3.60;99.90;;;;;;5022175;28;20274;-58
2021/12/05 10:19:47;;;;;;;1.53;1.23;;;3.60;99.90;;;;;;5021763;28;20207;-58
2021/12/05 10:36:18;;;;;;;1.50;1.40;;;3.80;99.90;;;;;;5022208;28;20226;-59
2021/12/05 10:38:49;;;;;;;1.50;1.27;;;3.90;99.90;;;;;;5037825;28;20209;-58
2021/12/05 10:44:05;;;;;;;1.03;1.03;;;4.00;99.90;;;;;;5086553;28;20197;-58
2021/12/05 10:46:33;;;;;;;1.30;1.20;;;4.00;99.90;;;;;;5087943;28;20253;-59
2021/12/05 10:49:03;;;;;;;3.17;1.13;;;4.10;99.90;;;;;;5087223;28;20232;-58
2021/12/05 10:51:33;;;;;;;2.57;1.40;;;4.10;99.90;;;;;;5087004;28;20221;-58
2021/12/05 10:54:03;;;;;;;1.10;1.00;;;4.10;99.90;;;;;;5087146;28;20287;-59
2021/12/05 10:56:34;;;;;;;1.20;1.10;;;4.20;99.90;;;;;;5087649;28;20288;-58
2021/12/05 10:59:03;;;;;;;2.10;1.20;;;4.10;99.90;;;;;;5086813;28;20205;-59
2021/12/05 11:01:38;;;;;;;1.43;1.20;;;4.10;99.90;;;;;;5087435;28;20258;-59
2021/12/05 11:04:08;;;;;;;1.10;1.00;;;4.10;99.90;;;;;;5086420;28;20302;-58
2021/12/05 11:06:49;;;;;;;1.53;0.70;;;4.10;99.90;;;;;;5086218;28;20212;-59
2021/12/05 11:09:19;;;;;;;1.40;1.00;;;4.10;99.90;;;;;;5086246;28;20208;-59
2021/12/05 11:11:49;;;;;;;1.40;1.20;;;4.00;99.90;;;;;;5087220;28;20216;-58
2021/12/05 11:14:18;;;;;;;0.90;0.90;;;4.00;99.90;;;;;;5086839;28;20277;-58
2021/12/05 11:16:48;;;;;;;0.87;0.60;;;4.00;99.90;;;;;;5087680;28;20232;-58
2021/12/05 11:19:19;;;;;;;0.63;0.63;;;4.00;99.90;;;;;;5087391;28;20284;-58
2021/12/05 11:21:48;;;;;;;0.70;0.70;;;4.00;99.90;;;;;;5087253;28;20225;-58
2021/12/05 11:24:23;;;;;;;0.93;0.83;;;4.00;99.90;;;;;;5087018;28;20232;-58
2021/12/05 11:27:19;;;;;;;0.60;0.60;;;4.00;99.90;;;;;;5087281;28;20269;-58
2021/12/05 11:30:10;;;;;;;0.87;0.77;;;4.00;99.90;;;;;;5086499;28;20213;-57
2021/12/05 11:32:40;;;;;;;0.73;0.73;;;4.10;99.90;;;;;;5087522;28;20186;-58
2021/12/05 11:35:32;;;;;;;0.87;0.87;;;4.10;99.90;;;;;;5087054;28;20304;-58
2021/12/05 11:38:06;;;;;;;0.90;0.90;;;4.20;99.90;;;;;;5086953;28;20683;-58
2021/12/05 11:40:48;;;;;;;0.90;0.90;;;4.20;99.90;;;;;;5086972;28;20197;-58
2021/12/05 11:43:19;;;;;;;1.07;0.97;;;4.30;99.90;;;;;;5086983;28;20225;-58
2021/12/05 11:45:52;;;;;;;0.60;0.60;;;4.30;99.90;;;;;;5086889;28;20182;-58
2021/12/05 11:48:22;;;;;;;0.70;0.60;;;4.30;99.90;;;;;;5086584;28;20197;-58
2021/12/05 11:50:49;;;;;;;0.90;0.90;;;4.30;99.90;;;;;;5086415;28;20691;-58
2021/12/05 11:53:16;;;;;;;0.97;0.70;;;4.20;99.90;;;;;;5086890;28;20205;-58
2021/12/05 11:55:43;;;;;;;0.60;0.60;;;4.20;99.90;;;;;;5086241;28;20644;-58
2021/12/05 11:58:18;;;;;;;0.70;0.70;;;4.20;99.90;;;;;;5086715;28;20215;-57
2021/12/05 12:00:45;;;;;;;1.63;0.93;;;4.20;99.90;;;;;;5086301;28;20207;-58
2021/12/05 12:03:12;;;;;;;0.70;0.70;;;4.30;99.90;;;;;;5086742;28;20318;-58
2021/12/05 12:05:39;;;;;;;0.70;0.70;;;4.40;99.90;;;;;;5086453;28;20197;-58
2021/12/05 12:08:08;;;;;;;0.47;0.47;;;4.40;99.90;;;;;;5086324;28;20228;-58
2021/12/05 12:10:39;;;;;;;0.67;0.67;;;4.50;99.90;;;;;;5086418;28;20223;-57
2021/12/05 12:13:09;;;;;;;0.77;0.73;;;4.60;99.90;;;;;;5086725;28;20185;-58
2021/12/05 12:15:39;;;;;;;0.83;0.80;;;4.60;99.90;;;;;;5085963;28;20268;-58
2021/12/05 12:18:13;;;;;;;0.70;0.70;;;4.70;99.90;;;;;;5086369;28;20204;-58
2021/12/05 12:20:45;;;;;;;0.80;0.80;;;4.70;99.90;;;;;;5085868;28;20200;-58
2021/12/05 12:23:12;;;;;;;0.60;0.60;;;4.70;99.90;;;;;;5086605;28;20201;-58
2021/12/05 12:25:40;;;;;;;2.00;0.70;;;4.80;99.90;;;;;;5085911;28;20224;-58
2021/12/05 12:28:09;;;;;;;0.90;0.90;;;4.80;99.90;;;;;;5086146;28;20205;-57
2021/12/05 12:30:41;;;;;;;0.60;0.60;;;4.80;99.90;;;;;;5085588;28;20284;-58
2021/12/05 12:33:11;;;;;;;0.70;0.70;;;4.80;99.90;;;;;;5086134;28;20257;-58
2021/12/05 12:35:38;;;;;;;0.70;0.70;;;4.70;99.90;;;;;;5086146;28;20296;-58
2021/12/05 12:38:09;;;;;;;0.93;0.63;;;4.70;99.90;;;;;;5085694;28;20205;-58
2021/12/05 12:40:42;;;;;;;0.70;0.70;;;4.70;99.90;;;;;;5086136;28;20197;-58
2021/12/05 12:43:30;;;;;;;0.53;0.53;;;4.70;99.90;;;;;;5085973;28;20181;-58
2021/12/05 12:46:14;;;;;;;0.60;0.57;;;4.70;99.90;;;;;;5086069;28;20211;-58
2021/12/05 12:48:41;;;;;;;0.73;0.73;;;4.70;99.90;;;;;;5085640;28;20240;-58
2021/12/05 12:51:08;;;;;;;0.57;0.57;;;4.70;99.90;;;;;;5085039;28;20617;-58
2021/12/05 12:53:38;;;;;;;0.97;0.90;;;4.70;99.90;;;;;;5085433;28;20303;-57
2021/12/05 12:56:10;;;;;;;5.10;0.90;;;4.70;99.90;;;;;;5085599;28;20204;-58
2021/12/05 12:58:46;;;;;;;2.07;0.70;;;4.70;99.90;;;;;;5084428;28;20197;-58
2021/12/05 13:01:33;;;;;;;0.97;0.87;;;4.60;99.90;;;;;;5085837;28;20185;-58
2021/12/05 13:12:45;;;;;;;0.90;0.87;;;4.60;99.90;;;;;;5085645;28;20256;-58
2021/12/05 13:15:16;;;;;;;1.83;1.20;;;4.60;99.90;;;;;;5084757;28;20197;-58
2021/12/05 13:17:47;;;;;;;0.83;0.57;;;4.70;99.90;;;;;;5085545;28;20205;-58
2021/12/05 13:20:17;;;;;;;1.30;1.10;;;4.70;99.90;;;;;;5085338;28;20205;-58
2021/12/05 13:23:11;;;;;;;1.20;0.97;;;4.70;99.90;;;;;;5084719;28;20287;-58
2021/12/05 13:26:04;;;;;;;0.70;0.70;;;4.70;99.90;;;;;;5084920;28;20211;-58
2021/12/05 13:28:33;;;;;;;0.70;0.70;;;4.80;99.90;;;;;;5084221;28;20204;-58
2021/12/05 13:31:21;;;;;;;0.73;0.70;;;4.70;99.90;;;;;;5085344;28;20267;-58
2021/12/05 13:33:49;;;;;;;0.93;0.67;;;4.70;99.90;;;;;;5084729;28;20260;-58
2021/12/05 13:36:32;;;;;;;1.37;0.90;;;4.70;99.90;;;;;;5084624;28;20292;-57
2021/12/05 13:38:59;;;;;;;2.60;1.10;;;4.70;99.90;;;;;;5084766;28;20212;-58
2021/12/05 13:41:29;;;;;;;0.63;0.57;;;4.70;99.90;;;;;;5085333;28;20212;-58
2021/12/05 13:43:57;;;;;;;1.30;1.20;;;4.70;99.90;;;;;;5084352;28;20201;-58
2021/12/05 13:46:31;;;;;;;1.10;1.00;;;4.70;99.90;;;;;;5085280;28;20209;-58
2021/12/05 13:49:00;;;;;;;1.00;0.93;;;4.70;99.90;;;;;;5084648;28;20208;-58
2021/12/05 13:51:28;;;;;;;7.13;1.10;;;4.70;99.90;;;;;;5084422;28;20252;-58
2021/12/05 13:53:59;;;;;;;1.03;0.87;;;4.70;99.90;;;;;;5084470;28;20223;-58
2021/12/05 13:56:27;;;;;;;1.47;1.37;;;4.60;99.90;;;;;;5085274;28;20205;-57
2021/12/05 13:58:59;;;;;;;1.43;1.20;;;4.60;99.90;;;;;;5083902;28;20209;-57
2021/12/05 14:01:29;;;;;;;1.90;1.30;;;4.60;99.90;;;;;;5085094;28;20182;-57
2021/12/05 14:04:05;;;;;;;1.10;1.00;;;4.60;99.90;;;;;;5084766;28;20205;-58
2021/12/05 14:06:44;;;;;;;1.57;1.00;;;4.60;99.90;;;;;;5084679;28;20224;-58
2021/12/05 14:09:15;;;;;;;2.23;1.33;;;4.60;99.90;;;;;;5084496;28;20577;-58
2021/12/05 14:11:49;;;;;;;0.83;0.83;;;4.60;99.90;;;;;;5087028;28;20216;-58
2021/12/05 14:14:18;;;;;;;1.97;1.27;;;4.60;99.90;;;;;;5088109;28;20268;-58
2021/12/05 14:16:48;;;;;;;1.00;1.00;;;4.60;99.90;;;;;;5089218;28;20197;-57
2021/12/05 14:19:18;;;;;;;1.53;1.43;;;4.60;99.90;;;;;;5088254;28;20209;-58
2021/12/05 14:21:48;;;;;;;0.93;0.93;;;4.60;99.90;;;;;;5088513;28;20225;-58
2021/12/05 14:24:17;;;;;;;1.40;1.30;;;4.60;99.90;;;;;;5088269;28;20201;-58
2021/12/05 14:26:47;;;;;;;2.77;1.80;;;4.60;99.90;;;;;;5088752;28;20206;-57
2021/12/05 14:29:20;;;;;;;3.23;1.90;;;4.60;99.90;;;;;;5087470;28;20272;-58
2021/12/05 14:31:50;;;;;;;0.90;0.90;;;4.60;99.90;;;;;;5088779;28;20200;-58
2021/12/05 14:34:19;;;;;;;2.80;1.10;;;4.60;99.90;;;;;;5088482;28;20395;-58
2021/12/05 14:36:53;;;;;;;2.13;1.30;;;4.60;99.90;;;;;;5088038;28;20292;-57
2021/12/05 14:39:25;;;;;;;1.00;0.80;;;4.60;99.90;;;;;;5088167;28;20259;-58
2021/12/05 14:41:55;;;;;;;1.83;1.37;;;4.60;99.90;;;;;;5088581;28;20192;-58
2021/12/05 14:44:23;;;;;;;1.73;1.43;;;4.50;99.90;;;;;;5087452;28;20216;-58
2021/12/05 14:46:55;;;;;;;4.60;1.60;;;4.50;99.90;;;;;;5088431;28;20587;-58
2021/12/05 14:49:25;;;;;;;1.60;1.50;;;4.50;99.90;;;;;;5087729;28;20264;-58
2021/12/05 14:51:53;;;;;;;2.33;1.67;;;4.50;99.90;;;;;;5087468;28;20281;-58
2021/12/05 14:54:23;;;;;;;2.30;1.57;;;4.50;99.90;;;;;;5087702;28;20204;-58
2021/12/05 14:56:50;;;;;;;3.60;1.47;;;4.50;99.90;;;;;;5088184;28;20201;-58
2021/12/05 14:59:18;;;;;;;0.97;0.90;;;4.40;99.90;;;;;;5087292;28;20208;-58
2021/12/05 15:01:47;;;;;;;1.37;1.27;;;4.40;99.90;;;;;;5088219;28;20272;-58
2021/12/05 15:04:19;;;;;;;1.97;1.37;;;4.40;99.90;;;;;;5087739;28;20201;-58
2021/12/05 15:06:50;;;;;;;1.50;1.33;;;4.40;99.90;;;;;;5087376;28;20292;-58
2021/12/05 15:09:26;;;;;;;1.60;1.10;;;4.40;99.90;;;;;;5087443;28;20552;-58
2021/12/05 15:12:02;;;;;;;2.50;0.83;;;4.40;99.90;;;;;;5087851;28;20268;-58
2021/12/05 15:14:30;;;;;;;3.07;1.17;;;4.30;99.90;;;;;;5087178;28;20304;-58
2021/12/05 15:17:04;;;;;;;1.57;1.23;;;4.30;99.90;;;;;;5087782;28;20272;-58
2021/12/05 15:19:32;;;;;;;2.03;1.93;;;4.30;99.90;;;;;;5087372;28;20223;-58
2021/12/05 15:22:04;;;;;;;1.97;1.70;;;4.30;99.90;;;;;;5086691;28;20261;-58
2021/12/05 15:24:32;;;;;;;7.03;1.80;;;4.20;99.90;;;;;;5086732;28;20624;-58
2021/12/05 15:27:00;;;;;;;2.00;1.53;;;4.30;99.90;;;;;;5087494;28;20225;-58
2021/12/05 15:29:28;;;;;;;1.97;1.70;;;4.30;99.90;;;;;;5086298;28;20273;-58
2021/12/05 15:31:57;;;;;;;3.40;1.70;;;4.20;99.90;;;;;;5087314;28;20220;-58
2021/12/05 15:34:30;;;;;;;2.03;1.77;;;4.20;99.90;;;;;;5087051;28;20239;-58
2021/12/05 15:36:59;;;;;;;2.03;1.50;;;4.20;99.90;;;;;;5086630;28;20228;-59
2021/12/05 15:39:30;;;;;;;1.37;1.17;;;4.20;99.90;;;;;;5086957;28;20735;-58
2021/12/05 15:41:59;;;;;;;1.20;1.10;;;4.20;99.90;;;;;;5087440;28;20189;-58
2021/12/05 15:44:31;;;;;;;1.43;1.00;;;4.10;99.90;;;;;;5085999;28;20204;-58
2021/12/05 15:47:11;;;;;;;0.70;0.70;;;4.10;99.90;;;;;;5086688;28;20205;-60
2021/12/05 15:49:58;;;;;;;0.83;0.73;;;4.10;99.90;;;;;;5085996;28;20301;-58
2021/12/05 15:52:29;;;;;;;0.90;0.90;;;4.00;99.90;;;;;;5085164;28;20248;-58
2021/12/05 15:54:58;;;;;;;0.87;0.87;;;4.10;99.90;;;;;;5085629;28;20189;-62
2021/12/05 15:57:32;;;;;;;0.60;0.53;;;4.00;99.90;;;;;;5085871;28;20253;-57
2021/12/05 16:00:04;;;;;;;2.00;1.23;;;4.10;99.90;;;;;;5085387;28;20205;-60
2021/12/05 16:02:31;;;;;;;0.87;0.87;;;4.10;99.90;;;;;;5086074;28;20220;-61
2021/12/05 16:04:58;;;;;;;1.37;0.70;;;4.00;99.90;;;;;;5085796;28;20216;-59
2021/12/05 16:07:30;;;;;;;1.00;0.97;;;3.90;99.90;;;;;;5085489;28;20274;-60
2021/12/05 16:10:14;;;;;;;1.37;1.00;;;3.90;99.90;;;;;;5084974;28;20227;-61
2021/12/05 16:12:44;;;;;;;3.47;1.40;;;3.90;99.90;;;;;;5085594;28;20292;-68
2021/12/05 16:15:12;;;;;;;1.47;1.20;;;3.90;99.90;;;;;;5083017;28;20224;-59
2021/12/05 16:17:40;;;;;;;0.50;0.50;;;3.80;99.90;;;;;;5084327;28;20231;-59
2021/12/05 16:20:17;;;;;;;1.57;1.03;;;3.80;99.90;;;;;;5083272;28;20197;-59
2021/12/05 16:23:13;;;;;;;1.90;1.67;;;3.80;99.90;;;;;;5082007;28;20364;-57
2021/12/05 16:25:47;;;;;;;1.53;1.00;;;3.80;99.90;;;;;;5082736;28;20264;-58
2021/12/05 16:28:16;;;;;;;0.67;0.67;;;3.80;99.90;;;;;;5082478;28;20208;-60
2021/12/05 16:30:48;;;;;;;0.87;0.83;;;3.90;99.90;;;;;;5083350;28;20193;-63
2021/12/05 16:33:18;;;;;;;1.73;0.87;;;3.90;99.90;;;;;;5083238;28;20244;-62
2021/12/05 16:35:49;;;;;;;1.17;1.07;;;4.00;99.90;;;;;;5083442;28;20197;-62
2021/12/05 16:38:23;;;;;;;0.90;0.90;;;3.90;99.90;;;;;;5082702;28;20637;-62
2021/12/05 16:41:05;;;;;;;2.10;0.83;;;3.90;99.90;;;;;;5081989;28;20720;-63
2021/12/05 16:43:35;;;;;;;1.17;1.07;;;3.90;99.90;;;;;;5079835;28;20384;-62
2021/12/05 16:46:10;;;;;;;1.63;1.53;;;3.80;99.90;;;;;;5080122;28;20223;-63
2021/12/05 16:48:39;;;;;;;1.90;1.80;;;3.80;99.90;;;;;;5082529;28;20208;-60
2021/12/05 16:51:22;;;;;;;2.53;2.00;;;3.70;99.90;;;;;;5083723;28;20256;-58
2021/12/05 16:53:52;;;;;;;2.80;1.70;;;3.70;99.90;;;;;;5085105;28;20288;-59
2021/12/05 16:59:22;;;;;;;5.87;1.90;;;3.70;99.90;;;;;;5163131;27;20358;-60
2021/12/05 17:02:09;;;;;;;10.77;3.23;;;3.70;99.90;;;;;;5148834;27;20194;-61
2021/12/05 17:04:57;;;;;;;17.80;4.33;;;3.80;99.90;;;;;;5143287;28;20199;-59
2021/12/05 17:07:55;;;;;;;19.17;4.67;;;3.80;99.90;;;;;;5143316;28;20282;-60
2021/12/05 17:10:39;;;;;;;11.20;3.63;;;3.80;99.90;;;;;;5126564;27;20208;-60
2021/12/05 17:13:13;;;;;;;6.73;3.67;;;3.80;99.90;;;;;;5136764;28;20340;-61
2021/12/05 17:15:48;;;;;;;10.27;2.77;;;3.80;99.90;;;;;;5131192;28;20221;-61
2021/12/05 17:18:17;;;;;;;4.47;2.93;;;3.80;99.90;;;;;;5136489;27;20243;-61
2021/12/05 17:20:48;;;;;;;3.53;2.00;;;3.70;99.90;;;;;;5139056;27;20214;-61
2021/12/05 17:23:22;;;;;;;4.80;2.90;;;3.70;99.90;;;;;;5137657;27;20199;-61
2021/12/05 17:25:53;;;;;;;6.73;2.40;;;3.80;99.90;;;;;;5132686;27;20561;-61
2021/12/05 17:28:34;;;;;;;3.10;2.07;;;3.80;99.90;;;;;;5136538;27;20196;-61
2021/12/05 17:31:06;;;;;;;2.93;1.53;;;3.90;99.90;;;;;;5128541;27;20257;-61
2021/12/05 17:33:40;;;;;;;3.40;2.13;;;3.90;99.90;;;;;;5124562;27;20204;-61
2021/12/05 17:36:18;;;;;;;2.77;1.97;;;3.90;99.90;;;;;;5124658;27;20651;-61
2021/12/05 17:38:45;;;;;;;4.83;2.33;;;3.80;99.90;;;;;;5123488;27;20302;-61
2021/12/05 17:41:12;;;;;;;1.87;1.50;;;3.80;99.90;;;;;;5123649;27;20272;-61
2021/12/05 17:43:39;;;;;;;2.10;1.40;;;3.70;99.90;;;;;;5130423;27;20242;-60
2021/12/05 17:46:07;;;;;;;1.53;1.33;;;3.60;99.90;;;;;;5135008;27;20273;-61
2021/12/05 17:48:34;;;;;;;1.90;1.50;;;3.60;99.90;;;;;;5129079;27;20406;-60
2021/12/05 17:51:04;;;;;;;1.03;0.93;;;3.60;99.90;;;;;;5133392;27;20518;-61
2021/12/05 17:53:33;;;;;;;1.57;1.13;;;3.70;99.90;;;;;;5143877;27;20199;-61